Time;durP1;ratioP1;P1;durP2;ratioP2;P2;SDS_P1;SDS_P2;PMS_P1;PMS_P2;Temp;Humidity;BMP_temperature;BMP_pressure;BME280_temperature;BME280_humidity;BME280_pressure;Samples;Min_cycle;Max_cycle;Signal;HPM_P1;HPM_P2
2022/05/02 00:00:38;;;;;;;4.20;1.60;;;;;;;6.72;100.00;101751.75;4994729;28;20041;-72
2022/05/02 00:03:04;;;;;;;4.18;2.05;;;;;;;6.66;100.00;101741.56;4992564;28;20651;-72
2022/05/02 00:05:29;;;;;;;2.53;1.70;;;;;;;6.68;100.00;101758.22;4990916;28;20072;-72
2022/05/02 00:07:55;;;;;;;5.00;2.03;;;;;;;6.70;100.00;101747.50;4987382;28;20030;-72
2022/05/02 00:10:20;;;;;;;4.77;1.60;;;;;;;6.72;100.00;101745.59;4992385;28;20037;-72
2022/05/02 00:12:46;;;;;;;4.03;1.80;;;;;;;6.71;100.00;101743.88;4973956;28;20054;-72
2022/05/02 00:15:11;;;;;;;4.88;2.00;;;;;;;6.69;100.00;101736.03;4987891;28;20038;-72
2022/05/02 00:20:32;;;;;;;3.25;1.35;;;;;;;6.75;100.00;101730.28;4993854;28;20038;-72
2022/05/02 00:22:59;;;;;;;2.55;1.50;;;;;;;6.79;100.00;101728.25;4991333;28;20045;-72
2022/05/02 00:25:25;;;;;;;3.03;1.60;;;;;;;6.79;100.00;101732.69;4994082;28;20049;-72
2022/05/02 00:27:51;;;;;;;2.47;1.88;;;;;;;6.78;100.00;101731.00;4995987;28;20029;-72
2022/05/02 00:30:17;;;;;;;3.60;1.93;;;;;;;6.80;100.00;101729.09;4992628;28;20435;-72
2022/05/02 00:32:43;;;;;;;4.85;1.95;;;;;;;6.81;100.00;101738.75;4991471;28;20045;-72
2022/05/02 00:35:10;;;;;;;4.57;1.55;;;;;;;6.76;100.00;101741.72;4993380;28;20026;-72
2022/05/02 00:37:37;;;;;;;2.78;1.85;;;;;;;6.70;100.00;101753.66;4998148;28;20045;-72
2022/05/02 00:40:03;;;;;;;2.63;2.03;;;;;;;6.76;100.00;101747.88;4994674;28;20022;-72
2022/05/02 00:42:28;;;;;;;2.95;1.95;;;;;;;6.89;100.00;101763.75;4986670;28;20121;-72
2022/05/02 00:44:53;;;;;;;3.00;1.73;;;;;;;6.91;100.00;101751.22;4990981;28;20176;-70
2022/05/02 00:47:20;;;;;;;10.57;2.70;;;;;;;6.90;100.00;101754.81;4991827;28;20049;-69
2022/05/02 00:49:48;;;;;;;2.78;1.65;;;;;;;6.97;100.00;101749.91;4990914;28;20034;-70
2022/05/02 00:52:14;;;;;;;2.33;1.38;;;;;;;7.00;100.00;101744.41;4987514;28;20049;-70
2022/05/02 00:54:41;;;;;;;3.70;2.30;;;;;;;7.00;100.00;101749.72;4989923;28;20026;-70
2022/05/02 00:57:07;;;;;;;2.75;1.95;;;;;;;6.94;100.00;101739.53;4988092;28;20533;-69
2022/05/02 00:59:35;;;;;;;7.55;2.47;;;;;;;6.89;100.00;101749.66;4964214;28;20026;-70
2022/05/02 01:02:01;;;;;;;5.90;2.17;;;;;;;6.78;100.00;101750.44;4990877;28;20080;-69
2022/05/02 01:04:26;;;;;;;3.83;2.17;;;;;;;6.85;100.00;101756.13;4999006;28;20025;-70
2022/05/02 01:07:10;;;;;;;3.33;2.00;;;;;;;6.86;100.00;101750.72;4996331;28;20042;-70
2022/05/02 01:09:43;;;;;;;2.78;2.08;;;;;;;6.84;100.00;101751.81;4990725;28;20038;-72
2022/05/02 01:12:12;;;;;;;2.63;1.75;;;;;;;6.83;100.00;101747.44;4965037;28;20038;-72
2022/05/02 01:14:38;;;;;;;5.78;2.15;;;;;;;6.88;100.00;101753.25;4980397;28;20033;-69
2022/05/02 01:17:04;;;;;;;;;;;;;;;6.92;100.00;101752.06;4969821;28;20549;-70
2022/05/02 01:19:30;;;;;;;;;;;;;;;6.85;100.00;101743.72;4994702;28;19984;-70
2022/05/02 01:21:55;;;;;;;5.32;3.72;;;;;;;6.81;100.00;101739.56;4991812;28;20040;-70
2022/05/02 01:24:20;;;;;;;2.30;1.90;;;;;;;6.81;100.00;101738.75;4992141;28;20483;-69
2022/05/02 01:26:46;;;;;;;3.60;2.33;;;;;;;6.75;100.00;101735.59;4995651;28;20482;-70
2022/05/02 01:29:11;;;;;;;3.13;1.97;;;;;;;6.75;100.00;101746.19;4991924;28;20070;-72
2022/05/02 01:31:36;;;;;;;3.43;2.37;;;;;;;6.74;100.00;101747.19;4995406;28;20038;-72
2022/05/02 01:34:02;;;;;;;3.47;1.93;;;;;;;6.70;100.00;101743.03;4990616;28;20034;-72
2022/05/02 01:36:28;;;;;;;3.50;2.20;;;;;;;6.68;100.00;101750.28;4993293;28;20042;-72
2022/05/02 01:38:53;;;;;;;3.10;2.00;;;;;;;6.65;100.00;101739.88;4991891;28;20084;-72
2022/05/02 01:41:19;;;;;;;8.40;2.63;;;;;;;6.60;100.00;101744.66;4988818;28;20046;-70
2022/05/02 01:43:45;;;;;;;3.97;1.98;;;;;;;6.57;100.00;101738.75;4992524;28;20128;-70
2022/05/02 01:46:12;;;;;;;4.20;2.40;;;;;;;6.58;100.00;101743.94;4991858;28;20526;-70
2022/05/02 01:48:38;;;;;;;3.55;2.25;;;;;;;6.58;100.00;101743.94;4990342;28;20308;-70
2022/05/02 01:51:04;;;;;;;5.82;2.58;;;;;;;6.56;100.00;101740.56;4959630;28;20042;-72
2022/05/02 01:53:29;;;;;;;4.32;2.05;;;;;;;6.58;100.00;101738.66;4997451;28;20028;-72
2022/05/02 01:55:55;;;;;;;2.53;2.00;;;;;;;6.58;100.00;101733.34;4986582;28;20061;-72
2022/05/02 01:58:21;;;;;;;2.97;2.15;;;;;;;6.59;100.00;101740.31;4989188;28;20628;-72
2022/05/02 02:00:47;;;;;;;3.60;2.05;;;;;;;6.55;100.00;101739.72;4992754;28;20380;-72
2022/05/02 02:03:12;;;;;;;6.60;2.50;;;;;;;6.56;100.00;101740.56;4952805;28;20089;-72
2022/05/02 02:05:50;;;;;;;3.93;2.50;;;;;;;6.58;100.00;101746.59;4989770;28;20284;-72
2022/05/02 02:08:19;;;;;;;2.17;1.90;;;;;;;6.63;100.00;101749.75;4964281;28;20042;-72
2022/05/02 02:10:45;;;;;;;3.58;2.30;;;;;;;6.61;100.00;101735.75;4993365;28;20057;-73
2022/05/02 02:13:12;;;;;;;3.33;1.95;;;;;;;6.62;100.00;101740.09;4972860;28;20042;-72
2022/05/02 02:15:37;;;;;;;3.95;1.85;;;;;;;6.69;100.00;101741.34;4983549;28;20220;-72
2022/05/02 02:18:03;;;;;;;3.60;1.88;;;;;;;6.76;100.00;101737.25;4997904;28;20605;-72
2022/05/02 02:20:29;;;;;;;5.88;2.13;;;;;;;6.76;100.00;101729.31;4981223;28;20121;-72
2022/05/02 02:22:55;;;;;;;3.47;2.10;;;;;;;6.66;100.00;101725.66;4980912;28;20065;-72
2022/05/02 02:25:22;;;;;;;3.75;1.65;;;;;;;6.64;100.00;101724.91;4989573;28;20029;-72
2022/05/02 02:27:48;;;;;;;6.22;2.50;;;;;;;6.70;100.00;101721.81;4987465;28;20458;-72
2022/05/02 02:30:14;;;;;;;4.97;2.37;;;;;;;6.76;100.00;101729.31;4971917;28;20042;-73
2022/05/02 02:32:41;;;;;;;;;;;;;;;6.78;100.00;101723.88;4989447;28;20030;-72
2022/05/02 02:35:07;;;;;;;3.75;1.45;;;;;;;6.82;100.00;101721.88;4993707;28;19936;-72
2022/05/02 02:37:32;;;;;;;3.60;1.73;;;;;;;6.85;100.00;101708.38;4967385;28;20042;-72
2022/05/02 02:39:57;;;;;;;2.10;1.73;;;;;;;6.87;100.00;101701.13;4993792;28;20045;-72
2022/05/02 02:42:23;;;;;;;3.23;1.90;;;;;;;6.93;100.00;101684.72;4966700;28;20038;-72
2022/05/02 02:44:49;;;;;;;3.30;1.80;;;;;;;6.91;100.00;101681.38;4989676;28;20030;-72
2022/05/02 02:47:14;;;;;;;3.40;2.20;;;;;;;6.91;100.00;101673.41;4999618;28;20794;-72
2022/05/02 02:49:40;;;;;;;7.40;2.60;;;;;;;6.89;100.00;101675.31;4978312;28;20045;-72
2022/05/02 02:52:05;;;;;;;5.63;2.83;;;;;;;6.90;100.00;101680.50;4988914;28;20046;-72
2022/05/02 02:54:30;;;;;;;4.20;2.47;;;;;;;6.90;100.00;101690.28;5001454;28;20029;-72
2022/05/02 02:56:56;;;;;;;2.63;1.70;;;;;;;6.91;100.00;101682.22;4998516;28;20270;-72
2022/05/02 02:59:21;;;;;;;5.03;2.03;;;;;;;6.85;100.00;101672.03;4965420;28;20430;-72
2022/05/02 03:01:47;;;;;;;2.93;1.80;;;;;;;6.65;100.00;101664.72;4976796;28;20037;-73
2022/05/02 03:06:58;;;;;;;1.88;1.38;;;;;;;6.70;100.00;101642.19;4992836;28;20042;-72
2022/05/02 03:09:23;;;;;;;2.38;1.80;;;;;;;6.84;100.00;101658.91;4992111;28;20038;-72
2022/05/02 03:11:49;;;;;;;3.53;1.60;;;;;;;6.86;100.00;101652.50;4970463;28;20064;-72
2022/05/02 03:14:14;;;;;;;2.27;1.60;;;;;;;6.91;100.00;101638.88;4970772;28;20293;-72
2022/05/02 03:16:40;;;;;;;2.10;1.40;;;;;;;6.96;100.00;101642.88;4961777;28;20073;-72
2022/05/02 03:19:05;;;;;;;2.73;1.10;;;;;;;6.97;100.00;101646.38;4962202;28;20061;-72
2022/05/02 03:21:30;;;;;;;2.73;1.70;;;;;;;6.92;100.00;101635.25;4991308;28;20121;-72
2022/05/02 03:23:56;;;;;;;3.70;1.53;;;;;;;6.92;100.00;101622.81;4988586;28;20365;-72
2022/05/02 03:26:21;;;;;;;1.40;1.27;;;;;;;6.90;100.00;101632.72;4962513;28;20041;-72
2022/05/02 03:28:46;;;;;;;1.97;1.00;;;;;;;6.88;100.00;101631.13;4970423;28;20022;-72
2022/05/02 03:31:12;;;;;;;2.20;1.53;;;;;;;6.84;100.00;101605.81;4965157;28;20109;-72
2022/05/02 03:33:37;;;;;;;2.00;1.20;;;;;;;6.84;100.00;101596.03;4988207;28;20062;-72
2022/05/02 03:36:03;;;;;;;2.90;1.30;;;;;;;6.95;100.00;101581.91;4988468;28;20026;-72
2022/05/02 03:38:28;;;;;;;5.22;1.85;;;;;;;6.92;100.00;101593.63;4957647;28;20037;-72
2022/05/02 03:40:53;;;;;;;7.87;1.67;;;;;;;6.94;100.00;101593.50;4987580;28;20073;-72
2022/05/02 03:43:19;;;;;;;3.17;1.70;;;;;;;6.95;100.00;101604.03;4989101;28;21022;-72
2022/05/02 03:45:44;;;;;;;2.17;1.20;;;;;;;6.97;100.00;101618.00;4970636;28;20662;-72
2022/05/02 03:48:10;;;;;;;3.30;1.13;;;;;;;6.97;100.00;101625.97;4988765;28;20030;-72
2022/05/02 03:50:35;;;;;;;1.93;1.30;;;;;;;6.93;100.00;101626.31;4988142;28;20058;-72
2022/05/02 03:53:00;;;;;;;3.90;1.73;;;;;;;6.99;100.00;101631.16;4970832;28;20038;-72
2022/05/02 03:55:26;;;;;;;3.97;1.53;;;;;;;7.00;100.00;101638.19;4988881;28;20121;-72
2022/05/02 03:57:52;;;;;;;2.47;1.30;;;;;;;7.03;100.00;101645.06;4988360;28;20023;-72
2022/05/02 04:00:18;;;;;;;2.13;1.20;;;;;;;7.06;100.00;101644.81;4987618;28;20034;-72
2022/05/02 04:02:43;;;;;;;1.55;1.00;;;;;;;7.07;100.00;101644.72;4988087;28;20061;-72
2022/05/02 04:05:09;;;;;;;5.53;1.30;;;;;;;7.08;100.00;101616.34;4962147;28;20438;-73
2022/05/02 04:07:34;;;;;;;3.53;1.45;;;;;;;7.14;100.00;101611.41;4960737;28;20039;-72
2022/05/02 04:10:00;;;;;;;1.83;1.60;;;;;;;7.19;100.00;101595.97;4988105;28;20335;-72
2022/05/02 04:12:26;;;;;;;2.03;1.80;;;;;;;7.27;100.00;101613.09;4988598;28;20030;-72
2022/05/02 04:14:51;;;;;;;4.47;2.50;;;;;;;7.26;100.00;101611.41;5018761;23;20141;-74
2022/05/02 04:17:16;;;;;;;1.43;1.10;;;;;;;7.26;100.00;101616.72;4984908;28;20468;-75
2022/05/02 04:19:42;;;;;;;5.30;2.60;;;;;;;7.17;100.00;101605.84;4986588;28;20407;-74
2022/05/02 04:22:07;;;;;;;5.47;1.60;;;;;;;7.23;100.00;101606.34;4985282;28;20079;-75
2022/05/02 04:24:33;;;;;;;3.23;1.57;;;;;;;7.29;100.00;101605.88;4979884;28;20467;-75
2022/05/02 04:26:58;;;;;;;2.20;1.43;;;;;;;7.37;100.00;101598.13;4968683;28;20030;-74
2022/05/02 04:29:24;;;;;;;1.67;1.00;;;;;;;7.46;100.00;101623.97;4964398;28;20394;-74
2022/05/02 04:31:50;;;;;;;2.75;1.50;;;;;;;7.49;100.00;101625.53;4969484;28;20034;-72
2022/05/02 04:34:15;;;;;;;1.73;1.20;;;;;;;7.46;100.00;101634.59;4969007;28;20039;-74
2022/05/02 04:36:41;;;;;;;2.28;1.35;;;;;;;7.49;100.00;101634.38;4957495;28;20035;-74
2022/05/02 04:39:06;;;;;;;2.67;1.50;;;;;;;7.61;100.00;101625.44;4969063;28;20047;-75
2022/05/02 04:41:32;;;;;;;3.80;1.93;;;;;;;7.60;100.00;101617.56;4961526;28;20039;-74
2022/05/02 04:43:57;;;;;;;1.30;1.20;;;;;;;7.68;100.00;101633.78;4967178;28;20041;-75
2022/05/02 04:46:26;;;;;;;3.23;1.47;;;;;;;7.66;100.00;101643.66;4960009;28;20069;-75
2022/05/02 04:48:51;;;;;;;2.30;1.35;;;;;;;7.75;100.00;101634.09;4955123;28;20080;-73
2022/05/02 04:51:17;;;;;;;4.07;1.97;;;;;;;7.87;100.00;101650.91;4968422;28;20078;-75
2022/05/02 04:53:42;;;;;;;1.97;1.40;;;;;;;7.91;100.00;101661.16;4967017;28;20070;-74
2022/05/02 04:56:08;;;;;;;2.07;1.37;;;;;;;7.90;100.00;101662.13;4961336;28;20030;-75
2022/05/02 04:58:33;;;;;;;2.50;1.27;;;;;;;7.88;100.00;101649.94;4968262;28;20035;-75
2022/05/02 05:00:58;;;;;;;6.23;1.70;;;;;;;7.78;100.00;101628.56;4971100;28;20031;-75
2022/05/02 05:03:24;;;;;;;5.87;2.27;;;;;;;7.85;100.00;101629.75;4970127;28;20084;-75
2022/05/02 05:05:49;;;;;;;2.07;1.50;;;;;;;8.02;100.00;101645.19;4971590;28;20031;-74
2022/05/02 05:08:15;;;;;;;4.27;1.93;;;;;;;8.10;100.00;101643.72;4973728;28;20038;-73
2022/05/02 05:11:05;;;;;;;2.65;2.05;;;;;;;8.16;100.00;101629.94;4966618;28;20026;-74
2022/05/02 05:13:43;;;;;;;2.85;1.70;;;;;;;8.10;100.00;101618.00;4963630;28;20117;-75
2022/05/02 05:16:27;;;;;;;2.83;2.03;;;;;;;8.03;100.00;101608.81;4950789;28;20468;-75
2022/05/02 05:19:19;;;;;;;3.20;1.98;;;;;;;8.20;100.00;101618.91;4966086;28;20270;-75
2022/05/02 05:22:03;;;;;;;4.32;2.00;;;;;;;8.36;100.00;101602.53;4958827;28;20120;-74
2022/05/02 05:24:49;;;;;;;2.50;1.60;;;;;;;8.50;100.00;101613.88;4944719;28;20035;-74
2022/05/02 05:27:45;;;;;;;5.95;1.98;;;;;;;8.60;100.00;101617.47;4958512;28;21033;-74
2022/05/02 05:30:10;;;;;;;2.15;1.58;;;;;;;8.71;100.00;101633.41;4971399;28;20053;-75
2022/05/02 05:33:03;;;;;;;3.43;1.50;;;;;;;8.65;100.00;101629.41;4944519;28;20315;-75
2022/05/02 05:35:51;;;;;;;2.33;1.35;;;;;;;8.77;100.00;101642.66;4945067;28;20043;-75
2022/05/02 05:38:26;;;;;;;3.45;1.92;;;;;;;8.80;100.00;101648.59;4965404;28;20058;-75
2022/05/02 05:41:26;;;;;;;3.75;1.60;;;;;;;8.78;100.00;101618.59;4964422;28;20544;-72
2022/05/02 05:44:01;;;;;;;3.17;1.88;;;;;;;8.92;100.00;101635.19;4964619;28;20504;-74
2022/05/02 05:46:53;;;;;;;3.70;2.13;;;;;;;8.96;100.00;101623.31;4985508;28;20061;-75
2022/05/02 05:49:58;;;;;;;2.05;1.70;;;;;;;9.11;100.00;101613.16;4971461;28;20608;-75
2022/05/02 05:52:48;;;;;;;2.90;1.60;;;;;;;9.26;100.00;101622.50;4970354;28;20033;-74
2022/05/02 05:55:26;;;;;;;5.45;2.55;;;;;;;9.26;100.00;101601.19;4971248;28;20035;-74
2022/05/02 05:58:36;;;;;;;3.55;2.55;;;;;;;9.25;100.00;101608.34;4976448;28;20038;-74
2022/05/02 06:01:15;;;;;;;6.10;2.45;;;;;;;9.24;100.00;101606.66;4981720;28;20070;-76
2022/05/02 06:03:58;;;;;;;4.72;2.15;;;;;;;9.23;100.00;101612.13;4950656;28;20046;-76
2022/05/02 06:06:26;;;;;;;3.03;2.47;;;;;;;9.35;100.00;101634.19;4969172;28;20077;-76
2022/05/02 06:08:52;;;;;;;5.22;1.95;;;;;;;9.41;100.00;101623.00;4968999;28;20104;-75
2022/05/02 06:11:19;;;;;;;5.22;2.28;;;;;;;9.53;100.00;101603.28;4974854;28;20755;-76
2022/05/02 06:13:45;;;;;;;3.70;2.20;;;;;;;9.63;100.00;101581.97;4969883;28;20847;-73
2022/05/02 06:18:57;;;;;;;2.75;2.03;;;;;;;9.79;100.00;101581.47;4970280;28;20066;-74
2022/05/02 06:21:23;;;;;;;3.83;2.10;;;;;;;10.19;100.00;101585.88;4950401;28;20058;-76
2022/05/02 06:23:50;;;;;;;3.60;2.15;;;;;;;10.19;100.00;101543.19;4996306;28;20041;-74
2022/05/02 06:26:20;;;;;;;2.95;1.98;;;;;;;10.21;100.00;101535.84;4981604;28;20406;-75
2022/05/02 06:28:48;;;;;;;3.30;2.50;;;;;;;10.21;100.00;101550.06;4991390;28;20080;-75
2022/05/02 06:31:26;;;;;;;6.43;2.90;;;;;;;10.36;100.00;101585.19;4971427;28;20475;-75
2022/05/02 06:33:52;;;;;;;4.97;2.13;;;;;;;11.10;100.00;101619.28;4993084;28;20121;-76
2022/05/02 06:36:30;;;;;;;4.47;1.85;;;;;;;11.76;98.01;101574.66;5009009;28;20018;-75
2022/05/02 06:39:07;;;;;;;4.28;1.95;;;;;;;12.66;91.43;101520.09;4962037;28;20042;-77
2022/05/02 06:42:01;;;;;;;3.65;2.40;;;;;;;13.33;84.84;101454.31;4974939;28;20042;-75
2022/05/02 06:45:05;;;;;;;3.72;2.50;;;;;;;12.16;83.05;101367.31;4975639;28;20029;-75
2022/05/02 06:47:43;;;;;;;5.32;2.42;;;;;;;13.58;82.99;101500.78;4984898;28;20503;-75
2022/05/02 06:50:11;;;;;;;3.28;2.10;;;;;;;14.82;76.49;101416.47;4988818;28;20554;-74
2022/05/02 06:52:55;;;;;;;6.18;2.00;;;;;;;15.09;71.16;101326.44;4987820;28;20031;-77
2022/05/02 06:55:36;;;;;;;5.68;2.25;;;;;;;14.95;68.90;101277.78;5004270;28;20061;-77
2022/05/02 06:58:33;;;;;;;2.55;1.80;;;;;;;14.67;68.02;101257.81;4993006;28;20034;-77
2022/05/02 07:01:10;;;;;;;3.25;1.98;;;;;;;13.74;71.55;101302.25;4988978;28;20119;-77
2022/05/02 07:03:46;;;;;;;5.80;2.45;;;;;;;13.89;73.78;101385.63;5000958;28;20198;-77
2022/05/02 07:06:30;;;;;;;5.93;2.00;;;;;;;14.23;71.94;101390.75;4989976;28;20477;-76
2022/05/02 07:09:04;;;;;;;3.50;1.98;;;;;;;14.08;69.34;101306.56;4959167;28;20459;-75
2022/05/02 07:11:44;;;;;;;3.95;2.50;;;;;;;14.45;68.91;101342.72;4970743;28;20490;-75
2022/05/02 07:14:37;;;;;;;3.65;2.53;;;;;;;14.66;66.52;101289.25;4989925;28;20038;-74
2022/05/02 07:17:23;;;;;;;2.15;1.90;;;;;;;15.54;65.16;101357.06;4989881;28;20045;-77
2022/05/02 07:20:15;;;;;;;5.03;3.03;;;;;;;15.79;62.43;101291.25;4987044;28;20507;-77
2022/05/02 07:22:49;;;;;;;4.63;2.20;;;;;;;15.68;62.05;101270.13;4982883;28;20061;-76
2022/05/02 07:25:19;;;;;;;2.22;2.00;;;;;;;16.02;59.75;101194.25;4990051;28;20034;-75
2022/05/02 07:27:59;;;;;;;5.32;1.80;;;;;;;15.99;59.61;101212.63;4987642;28;20035;-77
2022/05/02 07:30:24;;;;;;;4.32;2.10;;;;;;;16.53;58.72;101265.31;4996360;28;20034;-74
2022/05/02 07:32:53;;;;;;;4.80;2.13;;;;;;;16.48;57.09;101181.50;4962025;28;20030;-75
2022/05/02 07:35:21;;;;;;;3.55;2.38;;;;;;;15.04;58.41;101079.59;4970399;28;20042;-75
2022/05/02 07:37:47;;;;;;;3.85;2.10;;;;;;;15.32;59.78;101206.25;4987995;28;20486;-76
2022/05/02 07:40:19;;;;;;;2.72;2.20;;;;;;;15.76;58.40;101210.88;4970034;28;20488;-77
2022/05/02 07:42:45;;;;;;;4.88;2.05;;;;;;;16.43;54.93;101137.09;4986818;28;20158;-74
2022/05/02 07:45:13;;;;;;;4.43;2.20;;;;;;;15.48;55.79;101083.34;4988068;28;20033;-76
2022/05/02 07:47:43;;;;;;;7.57;2.40;;;;;;;15.72;54.91;101093.00;4973328;28;20484;-76
2022/05/02 07:50:10;;;;;;;5.53;1.90;;;;;;;15.47;55.36;101087.88;4991122;28;20496;-76
2022/05/02 07:52:40;;;;;;;4.85;2.47;;;;;;;15.24;56.56;101119.41;4977288;28;20073;-77
2022/05/02 07:55:07;;;;;;;3.83;2.35;;;;;;;15.43;52.66;100968.22;4991672;28;20034;-77
2022/05/02 07:57:36;;;;;;;5.45;2.38;;;;;;;15.44;53.92;101082.03;4986095;28;20026;-76
2022/05/02 08:00:05;;;;;;;3.20;2.15;;;;;;;16.02;52.00;101070.34;4983705;28;20450;-76
2022/05/02 08:02:37;;;;;;;3.97;2.20;;;;;;;15.85;52.27;101052.78;4973855;28;20031;-76
2022/05/02 08:05:06;;;;;;;4.03;2.40;;;;;;;15.83;51.87;101054.81;4988433;28;20030;-76
2022/05/02 08:07:35;;;;;;;5.43;2.95;;;;;;;15.50;51.95;101014.88;4977161;28;20487;-76
2022/05/02 08:10:33;;;;;;;4.75;2.40;;;;;;;15.87;52.41;101117.19;4970489;28;20395;-76
2022/05/02 08:13:24;;;;;;;3.22;2.22;;;;;;;15.91;50.74;101021.56;4986150;28;20035;-77
2022/05/02 08:16:05;;;;;;;3.80;2.05;;;;;;;15.83;52.14;101087.97;4986092;28;20100;-75
2022/05/02 08:18:53;;;;;;;3.70;2.25;;;;;;;16.47;49.48;101027.06;4965927;28;20035;-76
2022/05/02 08:21:32;;;;;;;5.85;2.58;;;;;;;16.62;48.35;101024.28;4976328;28;20487;-77
2022/05/02 08:27:15;;;;;;;4.82;2.45;;;;;;;17.43;46.17;101024.59;4992713;28;20042;-75
2022/05/02 08:30:07;;;;;;;7.40;2.53;;;;;;;17.09;45.75;100904.91;4984723;28;20069;-77
2022/05/02 08:32:59;;;;;;;3.50;2.13;;;;;;;17.34;47.40;101062.75;4982184;28;20155;-77
2022/05/02 08:36:00;;;;;;;10.85;2.03;;;;;;;17.11;43.25;100748.25;4998890;28;20423;-77
2022/05/02 08:38:50;;;;;;;4.38;2.10;;;;;;;16.96;43.29;100720.66;4988282;28;20467;-76
2022/05/02 08:41:28;;;;;;;3.42;2.08;;;;;;;17.33;42.88;100826.34;4975485;28;20044;-77
2022/05/02 08:44:12;;;;;;;3.55;2.50;;;;;;;17.38;41.99;100768.00;4963938;28;20038;-77
2022/05/02 08:47:14;;;;;;;2.67;2.28;;;;;;;16.75;42.01;100635.34;4987425;28;20092;-77
2022/05/02 08:49:51;;;;;;;3.90;2.60;;;;;;;16.37;42.98;100647.50;4988059;28;20511;-77
2022/05/02 08:52:25;;;;;;;3.97;2.72;;;;;;;16.80;43.63;100773.06;4986304;28;20026;-77
2022/05/02 08:55:28;;;;;;;4.88;3.28;;;;;;;16.68;45.07;100867.16;4976144;28;20042;-77
2022/05/02 08:58:12;;;;;;;6.80;3.55;;;;;;;17.48;44.71;101000.53;4977277;28;20088;-77
2022/05/02 09:00:55;;;;;;;4.88;2.70;;;;;;;18.33;42.97;101000.09;4995545;28;20117;-77
2022/05/02 09:03:42;;;;;;;3.97;2.67;;;;;;;18.37;43.44;101001.38;5005804;28;20516;-77
2022/05/02 09:06:30;;;;;;;7.97;2.95;;;;;;;19.04;43.42;101098.75;4961013;28;20439;-77
2022/05/02 09:09:19;;;;;;;7.55;3.28;;;;;;;19.40;43.47;101117.19;4987827;28;20084;-77
2022/05/02 09:12:17;;;;;;;5.05;3.20;;;;;;;17.31;44.05;100767.16;4958448;28;20142;-76
2022/05/02 09:15:01;;;;;;;5.03;2.55;;;;;;;19.10;45.07;101166.38;4982976;28;20104;-77
2022/05/02 09:18:08;;;;;;;8.23;2.90;;;;;;;18.88;42.89;100970.16;4990999;28;20034;-77
2022/05/02 09:20:47;;;;;;;4.32;2.65;;;;;;;20.13;41.85;101084.41;4977722;28;20057;-77
2022/05/02 09:23:34;;;;;;;5.15;3.53;;;;;;;18.96;41.28;100840.91;5010094;28;20050;-77
2022/05/02 09:26:11;;;;;;;3.83;3.00;;;;;;;19.13;41.46;100852.06;4975789;28;20114;-77
2022/05/02 09:28:59;;;;;;;6.00;3.40;;;;;;;19.15;42.12;100936.56;5001682;28;20400;-78
2022/05/02 09:31:33;;;;;;;5.07;3.35;;;;;;;18.87;40.35;100717.75;4976672;28;20508;-76
2022/05/02 09:34:33;;;;;;;6.55;3.58;;;;;;;19.11;41.71;100904.72;4991612;28;20033;-76
2022/05/02 09:37:20;;;;;;;4.82;3.17;;;;;;;19.22;41.09;100871.56;4997953;28;20483;-76
2022/05/02 09:40:02;;;;;;;3.38;2.70;;;;;;;19.18;40.28;100841.41;4979717;28;20066;-76
2022/05/02 09:42:44;;;;;;;5.55;3.00;;;;;;;19.27;40.29;100839.28;4996465;28;20117;-76
2022/05/02 09:52:11;;;;;;;7.75;3.47;;;;;;;19.33;39.59;100723.88;4885262;29;20076;-77
2022/05/02 09:58:10;;;;;;;7.50;3.45;;;;;;;18.61;41.98;100874.69;4978774;28;20030;-76
2022/05/02 10:01:08;;;;;;;7.28;3.45;;;;;;;19.38;40.18;100849.38;4992622;28;20418;-76
2022/05/02 10:03:53;;;;;;;6.70;3.35;;;;;;;20.34;40.46;101011.91;4988170;28;20533;-75
2022/05/02 10:06:41;;;;;;;6.90;3.63;;;;;;;20.15;40.14;100984.75;4962703;28;20046;-75
2022/05/02 10:09:21;;;;;;;3.55;2.83;;;;;;;20.51;38.62;100876.59;4983811;28;20054;-76
2022/05/02 10:12:16;;;;;;;5.68;3.22;;;;;;;19.10;38.74;100636.00;4988154;28;20129;-75
2022/05/02 10:14:50;;;;;;;5.22;3.80;;;;;;;19.00;40.34;100754.72;4986687;28;20117;-76
2022/05/02 10:17:34;;;;;;;4.07;3.20;;;;;;;19.82;38.74;100796.16;5004659;28;20038;-77
2022/05/02 10:20:15;;;;;;;5.78;3.22;;;;;;;20.38;38.80;100910.13;4987870;28;20034;-76
2022/05/02 10:22:59;;;;;;;3.72;3.03;;;;;;;20.12;38.06;100767.53;4985262;28;20034;-75
2022/05/02 10:25:36;;;;;;;4.60;2.78;;;;;;;19.24;38.94;100663.78;4988069;28;20100;-76
2022/05/02 10:28:23;;;;;;;6.03;3.60;;;;;;;19.50;37.55;100602.31;4987813;28;20037;-77
2022/05/02 10:30:50;;;;;;;6.03;3.00;;;;;;;20.54;37.22;100798.34;4975838;28;20045;-75
2022/05/02 10:33:24;;;;;;;3.20;2.60;;;;;;;20.26;36.23;100648.97;4992537;28;20026;-77
2022/05/02 10:35:52;;;;;;;6.07;3.97;;;;;;;20.15;36.11;100590.91;4989731;28;20084;-77
2022/05/02 10:38:28;;;;;;;4.75;3.08;;;;;;;19.71;37.04;100611.88;4996338;28;20025;-76
2022/05/02 10:41:04;;;;;;;4.22;2.80;;;;;;;19.11;38.01;100586.25;4997260;28;20116;-76
2022/05/02 10:43:33;;;;;;;6.40;3.85;;;;;;;20.00;37.34;100710.56;4987863;28;20041;-76
2022/05/02 10:46:00;;;;;;;4.30;3.00;;;;;;;19.03;37.25;100504.53;4972532;28;20057;-75
2022/05/02 10:48:43;;;;;;;5.15;3.28;;;;;;;20.04;36.98;100703.63;4988073;28;20065;-77
2022/05/02 10:51:25;;;;;;;4.05;3.25;;;;;;;19.56;36.54;100547.25;4994235;28;20042;-77
2022/05/02 10:54:00;;;;;;;7.25;3.47;;;;;;;19.80;36.90;100608.66;4980724;28;20117;-77
2022/05/02 10:56:41;;;;;;;6.18;3.63;;;;;;;20.60;37.59;100835.44;4997231;28;20033;-78
2022/05/02 10:59:11;;;;;;;9.73;4.30;;;;;;;19.34;36.40;100425.09;4996826;28;20042;-78
2022/05/02 11:02:15;;;;;;;8.75;3.72;;;;;;;20.45;36.64;100716.47;4964637;28;20046;-78
2022/05/02 11:05:06;;;;;;;3.10;2.80;;;;;;;20.33;35.41;100579.22;4977512;28;20039;-77
2022/05/02 11:07:44;;;;;;;5.78;3.38;;;;;;;20.22;35.42;100551.00;4986110;28;20046;-78
2022/05/02 11:10:12;;;;;;;4.57;3.47;;;;;;;20.08;35.61;100538.69;4980280;28;20042;-77
2022/05/02 11:13:09;;;;;;;6.55;3.53;;;;;;;20.77;34.14;100552.69;4989429;28;20570;-78
2022/05/02 11:16:30;;;;;;;6.82;3.10;;;;;;;20.82;34.87;100609.78;4988088;28;20049;-77
2022/05/02 11:22:15;;;;;;;3.80;2.53;;;;;;;21.21;34.59;100653.56;4979371;28;20447;-78
2022/05/02 11:24:59;;;;;;;3.88;3.40;;;;;;;21.23;35.50;100659.59;4977780;28;20041;-77
2022/05/02 11:27:42;;;;;;;4.50;3.17;;;;;;;21.69;34.22;100671.56;4985925;28;20053;-76
2022/05/02 11:30:15;;;;;;;5.80;4.10;;;;;;;20.15;34.77;100352.44;4988933;28;20943;-77
2022/05/02 11:32:46;;;;;;;4.28;2.97;;;;;;;20.36;36.02;100574.13;4989104;28;20034;-77
2022/05/02 11:35:14;;;;;;;7.25;4.47;;;;;;;20.99;34.26;100510.31;4990335;28;20554;-77
2022/05/02 11:37:45;;;;;;;5.95;3.65;;;;;;;20.46;34.50;100451.53;4962833;28;20082;-77
2022/05/02 11:40:11;;;;;;;5.90;3.53;;;;;;;19.65;35.87;100388.00;4990845;28;20038;-77
2022/05/02 11:42:46;;;;;;;6.15;3.13;;;;;;;20.76;35.43;100621.56;4975074;28;20035;-77
2022/05/02 11:45:17;;;;;;;8.02;3.75;;;;;;;20.95;35.26;100587.00;4971745;28;20049;-77
2022/05/02 11:47:48;;;;;;;6.20;3.20;;;;;;;21.12;34.41;100560.84;4990934;28;20129;-78
2022/05/02 11:50:18;;;;;;;6.00;3.33;;;;;;;20.54;34.91;100461.25;5006277;28;20038;-78
2022/05/02 11:52:51;;;;;;;7.72;3.60;;;;;;;21.28;34.50;100617.13;4995865;28;20069;-76
2022/05/02 11:55:18;;;;;;;5.75;3.20;;;;;;;21.29;34.25;100572.59;4990326;28;20169;-77
2022/05/02 11:57:50;;;;;;;5.72;3.08;;;;;;;21.60;33.79;100594.22;4992091;28;20053;-77
2022/05/02 12:00:17;;;;;;;4.93;3.20;;;;;;;20.69;34.15;100399.22;4991771;28;20038;-78
2022/05/02 12:02:56;;;;;;;5.68;3.90;;;;;;;21.54;33.79;100562.56;4986990;28;20062;-78
2022/05/02 12:05:25;;;;;;;3.22;2.85;;;;;;;21.31;33.65;100480.06;4989027;28;20045;-77
2022/05/02 12:07:55;;;;;;;6.70;3.60;;;;;;;21.65;33.68;100553.56;4988139;28;20038;-78
2022/05/02 12:10:35;;;;;;;7.90;3.17;;;;;;;22.04;35.05;100741.34;4972163;28;20423;-77
2022/05/02 12:13:01;;;;;;;5.80;3.25;;;;;;;21.61;33.00;100455.44;4989356;28;20030;-77
2022/05/02 12:15:27;;;;;;;3.88;2.22;;;;;;;22.32;32.81;100589.13;4988868;28;20114;-78
2022/05/02 12:18:03;;;;;;;5.80;3.08;;;;;;;22.00;32.13;100422.97;4990625;28;20100;-78
2022/05/02 12:20:33;;;;;;;;;;;;;;;21.14;32.98;100308.16;4973634;28;20042;-75